createdAt,value
2018-06-01T00:01:05.959Z,100050.56
2018-06-01T00:03:33.360Z,100051.88
2018-06-01T00:06:00.750Z,100049.52
2018-06-01T00:08:29.112Z,100054.09
2018-06-01T00:10:56.503Z,100059.50
2018-06-01T00:13:23.890Z,100065.95
2018-06-01T00:15:51.518Z,100062.39
2018-06-01T00:18:18.911Z,100076.48
2018-06-01T00:20:46.296Z,100064.36
2018-06-01T00:23:13.715Z,100060.42
2018-06-01T00:25:41.098Z,100054.98
2018-06-01T00:28:08.487Z,100058.09
2018-06-01T00:30:35.919Z,100055.66
2018-06-01T00:33:03.303Z,100054.93
2018-06-01T00:35:30.695Z,100054.25
2018-06-01T00:37:58.087Z,100045.08
2018-06-01T00:40:25.479Z,100045.08
2018-06-01T00:42:52.866Z,100039.99
2018-06-01T00:45:20.259Z,100046.44
2018-06-01T00:47:47.662Z,100043.80
2018-06-01T00:50:15.047Z,100041.48
2018-06-01T00:52:42.439Z,100041.61
2018-06-01T00:55:21.678Z,100041.13
2018-06-01T00:57:49.067Z,100043.54
2018-06-01T01:00:16.450Z,100037.03
2018-06-01T01:02:43.847Z,100042.97
2018-06-01T01:05:11.235Z,100036.10
2018-06-01T01:07:38.631Z,100036.77
2018-06-01T01:10:06.029Z,100036.25
2018-06-01T01:12:33.434Z,100038.15
2018-06-01T01:15:00.823Z,100036.83
2018-06-01T01:17:28.220Z,100046.86
2018-06-01T01:19:55.602Z,100044.84
2018-06-01T01:22:23.003Z,100058.73
2018-06-01T01:24:50.395Z,100065.58
2018-06-01T01:27:17.798Z,100064.42
2018-06-01T01:29:45.207Z,100065.59
2018-06-01T01:32:12.592Z,100065.20
2018-06-01T01:34:39.988Z,100071.42
2018-06-01T01:37:07.383Z,100082.00
2018-06-01T01:39:34.774Z,100078.34
2018-06-01T01:42:02.158Z,100081.01
2018-06-01T01:44:29.555Z,100073.94
2018-06-01T01:46:56.951Z,100076.66
2018-06-01T01:49:24.342Z,100075.97
2018-06-01T01:51:51.722Z,100063.91
2018-06-01T01:54:19.120Z,100060.63
2018-06-01T01:56:46.513Z,100047.78
2018-06-01T01:59:13.912Z,100044.90
2018-06-01T02:01:41.299Z,100035.39
2018-06-01T02:04:08.690Z,100030.77
2018-06-01T02:06:36.083Z,100025.71
2018-06-01T02:09:03.475Z,100024.22
2018-06-01T02:11:30.884Z,100025.44
2018-06-01T02:13:58.277Z,100027.39
2018-06-01T02:16:25.691Z,100031.09
2018-06-01T02:18:53.075Z,100029.67
2018-06-01T02:21:20.472Z,100037.55
2018-06-01T02:23:47.859Z,100042.79
2018-06-01T02:26:15.255Z,100036.28
2018-06-01T02:28:42.643Z,100032.03
2018-06-01T02:31:10.043Z,100014.14
2018-06-01T02:33:37.436Z,100014.61
2018-06-01T02:36:04.838Z,100012.03
2018-06-01T02:38:32.224Z,100010.55
2018-06-01T02:40:59.620Z,100011.72
2018-06-01T02:43:27.018Z,100003.27
2018-06-01T02:45:54.410Z,99990.77
2018-06-01T02:48:21.795Z,99980.20
2018-06-01T02:50:49.178Z,99973.34
2018-06-01T02:53:16.567Z,99964.24
2018-06-01T02:55:43.951Z,99955.30
2018-06-01T02:58:11.345Z,99957.96
2018-06-01T03:00:38.731Z,99969.09
2018-06-01T03:03:06.119Z,99989.94
2018-06-01T03:05:33.523Z,100010.25
2018-06-01T03:08:00.915Z,100016.79
2018-06-01T03:10:28.306Z,100017.44
2018-06-01T03:12:55.702Z,100018.46
2018-06-01T03:15:23.091Z,100030.20
2018-06-01T03:17:50.500Z,100036.91
2018-06-01T03:20:17.882Z,100037.30
2018-06-01T03:22:45.271Z,100042.02
2018-06-01T03:25:12.667Z,100048.84
2018-06-01T03:27:40.056Z,100044.02
2018-06-01T03:30:07.443Z,100034.05
2018-06-01T03:32:34.847Z,100026.22
2018-06-01T03:35:02.274Z,100032.25
2018-06-01T03:37:29.635Z,100036.49
2018-06-01T03:39:57.023Z,100056.73
2018-06-01T03:42:24.419Z,100083.98
2018-06-01T03:44:51.802Z,100109.23
2018-06-01T03:47:19.205Z,100119.59
2018-06-01T03:49:46.595Z,100116.53
2018-06-01T03:52:13.992Z,100116.83
2018-06-01T03:54:41.379Z,100116.05
2018-06-01T03:57:08.767Z,100120.20
2018-06-01T03:59:36.167Z,100128.13
2018-06-01T04:02:03.555Z,100137.95
2018-06-01T04:04:30.951Z,100157.06
2018-06-01T04:06:58.362Z,100167.84
2018-06-01T04:09:28.723Z,100179.80
2018-06-01T04:11:56.110Z,100183.92
2018-06-01T04:14:23.498Z,100185.30
2018-06-01T04:16:50.935Z,100175.19
2018-06-01T04:19:18.339Z,100178.05
2018-06-01T04:21:45.714Z,100169.43
2018-06-01T04:24:13.106Z,100169.15
2018-06-01T04:26:40.500Z,100173.48
2018-06-01T04:29:07.895Z,100175.41
2018-06-01T04:31:35.319Z,100169.13
2018-06-01T04:34:02.711Z,100148.59
2018-06-01T04:36:30.122Z,100146.00
2018-06-01T04:38:57.510Z,100148.17
2018-06-01T04:41:25.094Z,100156.70
2018-06-01T04:43:52.490Z,100168.86
2018-06-01T04:46:19.896Z,100175.49
2018-06-01T04:48:47.282Z,100169.80
2018-06-01T04:51:14.687Z,100167.24
2018-06-01T04:53:42.071Z,100174.69
2018-06-01T04:56:09.489Z,100173.86
2018-06-01T04:58:36.863Z,100176.17
2018-06-01T05:01:04.259Z,100171.30
2018-06-01T05:03:31.656Z,100176.43
2018-06-01T05:05:59.039Z,100176.83
2018-06-01T05:08:26.434Z,100165.35
2018-06-01T05:10:53.842Z,100153.03
2018-06-01T05:13:21.227Z,100137.50
2018-06-01T05:15:48.914Z,100135.61
2018-06-01T05:18:16.310Z,100130.85
2018-06-01T05:20:43.703Z,100127.06
2018-06-01T05:23:11.115Z,100121.67
2018-06-01T05:25:38.507Z,100127.36
2018-06-01T05:28:05.898Z,100119.78
2018-06-01T05:30:33.298Z,100113.70
2018-06-01T05:33:00.693Z,100116.24
2018-06-01T05:35:28.145Z,100111.52
2018-06-01T05:37:55.492Z,100114.35
2018-06-01T05:40:22.886Z,100106.94
2018-06-01T05:42:50.304Z,100106.40
2018-06-01T05:45:17.698Z,100101.92
2018-06-01T05:47:45.091Z,100097.45
2018-06-01T05:50:12.872Z,100089.09
2018-06-01T05:52:40.263Z,100096.41
2018-06-01T05:55:07.655Z,100094.92
2018-06-01T05:57:35.060Z,100096.41
2018-06-01T06:00:02.451Z,100095.05
2018-06-01T06:02:29.856Z,100088.69
2018-06-01T06:04:57.252Z,100097.20
2018-06-01T06:07:24.646Z,100092.06
2018-06-01T06:09:52.039Z,100092.36
2018-06-01T06:12:19.446Z,100088.69
2018-06-01T06:14:46.839Z,100083.53
2018-06-01T06:17:14.234Z,100083.54
2018-06-01T06:19:41.627Z,100090.98
2018-06-01T06:22:09.032Z,100089.36
2018-06-01T06:24:36.438Z,100096.09
2018-06-01T06:27:03.831Z,100102.05
2018-06-01T06:29:31.238Z,100099.61
2018-06-01T06:31:58.627Z,100105.58
2018-06-01T06:34:26.039Z,100100.67
2018-06-01T06:36:53.432Z,100103.77
2018-06-01T06:39:20.831Z,100094.03
2018-06-01T06:41:48.229Z,100091.95
2018-06-01T06:44:15.623Z,100083.97
2018-06-01T06:46:43.035Z,100084.06
2018-06-01T06:49:10.439Z,100089.30
2018-06-01T06:51:37.835Z,100092.27
2018-06-01T06:54:05.231Z,100086.37
2018-06-01T06:56:32.631Z,100086.73
2018-06-01T06:59:00.019Z,100087.74
2018-06-01T07:01:27.423Z,100098.17
2018-06-01T07:03:54.810Z,100099.68
2018-06-01T07:06:22.207Z,100106.34
2018-06-01T07:08:49.610Z,100110.78
2018-06-01T07:11:17.079Z,100115.37
2018-06-01T07:13:44.474Z,100129.03
2018-06-01T07:16:11.867Z,100142.05
2018-06-01T07:18:39.264Z,100157.79
2018-06-01T07:21:06.664Z,100165.13
2018-06-01T07:23:34.062Z,100179.88
2018-06-01T07:26:01.447Z,100178.03
2018-06-01T07:28:28.853Z,100173.06
2018-06-01T07:30:56.242Z,100174.88
2018-06-01T07:33:23.670Z,100181.09
2018-06-01T07:35:51.047Z,100189.25
2018-06-01T07:38:18.479Z,100180.04
2018-06-01T07:40:45.874Z,100174.07
2018-06-01T07:43:13.267Z,100156.61
2018-06-01T07:45:40.667Z,100168.45
2018-06-01T07:48:08.071Z,100175.08
2018-06-01T07:50:35.467Z,100184.30
2018-06-01T07:53:02.858Z,100185.63
2018-06-01T07:55:30.266Z,100192.81
2018-06-01T07:57:57.653Z,100200.94
2018-06-01T08:00:25.051Z,100203.77
2018-06-01T08:02:52.447Z,100206.33
2018-06-01T08:05:19.859Z,100198.77
2018-06-01T08:07:47.239Z,100198.50
2018-06-01T08:10:14.636Z,100204.06
2018-06-01T08:12:42.051Z,100205.95
2018-06-01T08:15:09.472Z,100208.12
2018-06-01T08:17:36.867Z,100210.57
2018-06-01T08:20:04.267Z,100210.02
2018-06-01T08:22:31.663Z,100202.17
2018-06-01T08:24:59.055Z,100207.98
2018-06-01T08:27:26.666Z,100201.89
2018-06-01T08:29:54.059Z,100200.14
2018-06-01T08:32:21.508Z,100210.92
2018-06-01T08:34:48.875Z,100213.06
2018-06-01T08:37:16.311Z,100213.31
2018-06-01T08:39:43.687Z,100206.69
2018-06-01T08:42:11.100Z,100208.56
2018-06-01T08:44:38.495Z,100212.78
2018-06-01T08:47:05.891Z,100205.17
2018-06-01T08:49:33.287Z,100198.29
2018-06-01T08:52:00.682Z,100198.62
2018-06-01T08:54:28.078Z,100195.51
2018-06-01T08:56:55.479Z,100198.23
2018-06-01T08:59:22.871Z,100194.06
2018-06-01T09:01:50.263Z,100199.31
2018-06-01T09:04:17.663Z,100198.11
2018-06-01T09:06:45.052Z,100207.88
2018-06-01T09:09:12.618Z,100214.40
2018-06-01T09:11:40.010Z,100214.69
2018-06-01T09:14:07.399Z,100214.55
2018-06-01T09:16:34.798Z,100214.31
2018-06-01T09:19:02.190Z,100218.23
2018-06-01T09:21:29.596Z,100218.77
2018-06-01T09:23:56.984Z,100211.52
2018-06-01T09:26:24.378Z,100214.63
2018-06-01T09:28:51.771Z,100218.39
2018-06-01T09:31:19.171Z,100220.39
2018-06-01T09:33:46.566Z,100219.30
2018-06-01T09:36:13.966Z,100221.33
2018-06-01T09:38:41.355Z,100223.91
2018-06-01T09:41:08.754Z,100221.97
2018-06-01T09:43:36.164Z,100223.00
2018-06-01T09:46:03.556Z,100224.80
2018-06-01T09:48:31.115Z,100226.42
2018-06-01T09:50:58.509Z,100228.60
2018-06-01T09:53:25.911Z,100226.54
2018-06-01T09:55:53.303Z,100228.84
2018-06-01T09:58:20.702Z,100233.55
2018-06-01T10:00:53.783Z,100228.42
2018-06-01T10:03:21.178Z,100234.94
2018-06-01T10:05:48.575Z,100234.34
2018-06-01T10:08:15.983Z,100236.62
2018-06-01T10:10:43.376Z,100233.23
2018-06-01T10:13:10.779Z,100238.58
2018-06-01T10:15:38.220Z,100231.61
2018-06-01T10:18:05.598Z,100233.64
2018-06-01T10:20:35.629Z,100232.74
2018-06-01T10:23:03.022Z,100236.44
2018-06-01T10:25:30.426Z,100235.11
2018-06-01T10:27:58.290Z,100234.47
2018-06-01T10:30:25.715Z,100231.72
2018-06-01T10:32:53.121Z,100229.55
2018-06-01T10:35:20.490Z,100227.13
2018-06-01T10:37:47.890Z,100223.51
2018-06-01T10:40:15.283Z,100226.07
2018-06-01T10:42:42.687Z,100221.56
2018-06-01T10:45:10.129Z,100227.06
2018-06-01T10:47:37.475Z,100224.88
2018-06-01T10:50:04.871Z,100226.91
2018-06-01T10:52:32.267Z,100230.59
2018-06-01T10:54:59.659Z,100233.16
2018-06-01T10:57:27.054Z,100228.52
2018-06-01T10:59:54.448Z,100236.09
2018-06-01T11:02:21.851Z,100228.89
2018-06-01T11:04:49.246Z,100229.28
2018-06-01T11:07:16.651Z,100233.27
2018-06-01T11:09:44.047Z,100233.61
2018-06-01T11:12:11.504Z,100236.58
2018-06-01T11:14:38.899Z,100235.19
2018-06-01T11:17:06.304Z,100241.86
2018-06-01T11:19:33.700Z,100238.58
2018-06-01T11:22:01.099Z,100238.50
2018-06-01T11:24:28.503Z,100238.66
2018-06-01T11:26:55.941Z,100233.34
2018-06-01T11:29:23.302Z,100239.59
2018-06-01T11:31:50.698Z,100240.69
2018-06-01T11:34:18.102Z,100240.56
2018-06-01T11:36:45.495Z,100238.45
2018-06-01T11:39:12.896Z,100242.80
2018-06-01T11:41:40.287Z,100245.92
2018-06-01T11:44:07.682Z,100241.33
2018-06-01T11:46:35.080Z,100240.37
2018-06-01T11:49:02.470Z,100240.79
2018-06-01T11:51:29.921Z,100240.28
2018-06-01T11:53:57.259Z,100236.77
2018-06-01T11:56:24.651Z,100235.83
2018-06-01T11:58:52.046Z,100241.26
2018-06-01T12:01:19.447Z,100243.67
2018-06-01T12:03:46.844Z,100234.48
2018-06-01T12:06:14.239Z,100240.44
2018-06-01T12:08:41.637Z,100241.38
2018-06-01T12:11:09.031Z,100237.33
2018-06-01T12:13:36.427Z,100240.73
2018-06-01T12:16:03.822Z,100240.83
2018-06-01T12:18:31.223Z,100245.31
2018-06-01T12:20:58.694Z,100244.49
2018-06-01T12:23:26.102Z,100248.55
2018-06-01T12:25:53.674Z,100248.55
2018-06-01T12:28:21.076Z,100254.67
2018-06-01T12:30:50.054Z,100249.27
2018-06-01T12:33:17.467Z,100252.23
2018-06-01T12:35:44.867Z,100248.19
2018-06-01T12:38:12.327Z,100249.27
2018-06-01T12:40:39.729Z,100241.81
2018-06-01T12:43:07.122Z,100249.78
2018-06-01T12:45:34.520Z,100247.36
2018-06-01T12:48:02.920Z,100249.27
2018-06-01T12:50:30.318Z,100248.84
2018-06-01T12:52:57.751Z,100248.58
2018-06-01T12:55:25.159Z,100251.53
2018-06-01T12:57:52.555Z,100246.41
2018-06-01T13:00:20.245Z,100253.39
2018-06-01T13:02:47.763Z,100248.80
2018-06-01T13:05:15.150Z,100253.23
2018-06-01T13:07:42.552Z,100248.78
2018-06-01T13:10:09.940Z,100253.25
2018-06-01T13:12:37.346Z,100248.36
2018-06-01T13:15:04.728Z,100245.00
2018-06-01T13:17:32.183Z,100245.13
2018-06-01T13:19:59.615Z,100233.34
2018-06-01T13:22:27.011Z,100236.34
2018-06-01T13:24:54.406Z,100235.79
2018-06-01T13:27:21.858Z,100238.23
2018-06-01T13:29:49.289Z,100233.09
2018-06-01T13:32:16.663Z,100229.73
2018-06-01T13:34:44.057Z,100229.99
2018-06-01T13:37:11.482Z,100235.14
2018-06-01T13:39:38.897Z,100230.13
2018-06-01T13:42:06.271Z,100238.81
2018-06-01T13:44:33.667Z,100243.11
2018-06-01T13:47:01.067Z,100242.31
2018-06-01T13:49:28.475Z,100246.22
2018-06-01T13:51:55.925Z,100253.38
2018-06-01T13:54:23.356Z,100249.45
2018-06-01T13:56:50.798Z,100248.09
2018-06-01T13:59:18.611Z,100247.94
2018-06-01T14:01:45.998Z,100248.31
2018-06-01T14:04:13.426Z,100247.91
2018-06-01T14:06:40.825Z,100252.39
2018-06-01T14:09:08.243Z,100250.50
2018-06-01T14:11:35.643Z,100250.48
2018-06-01T14:14:03.031Z,100247.76
2018-06-01T14:16:30.431Z,100252.48
2018-06-01T14:18:57.836Z,100249.52
2018-06-01T14:21:25.260Z,100258.19
2018-06-01T14:23:52.688Z,100245.20
2018-06-01T14:26:20.078Z,100246.40
2018-06-01T14:28:47.477Z,100252.08
2018-06-01T14:31:14.867Z,100256.27
2018-06-01T14:33:42.284Z,100249.38
2018-06-01T14:36:09.675Z,100245.32
2018-06-01T14:38:37.072Z,100246.40
2018-06-01T14:41:04.460Z,100247.34
2018-06-01T14:43:31.855Z,100252.06
2018-06-01T14:45:59.247Z,100241.95
2018-06-01T14:48:26.654Z,100248.27
2018-06-01T14:50:54.060Z,100253.70
2018-06-01T14:53:21.452Z,100250.99
2018-06-01T14:55:48.864Z,100250.59
2018-06-01T14:58:16.252Z,100250.71
2018-06-01T15:00:43.656Z,100249.63
2018-06-01T15:03:11.051Z,100254.91
2018-06-01T15:05:38.443Z,100246.26
2018-06-01T15:08:05.842Z,100241.56
2018-06-01T15:10:33.241Z,100240.50
2018-06-01T15:13:00.637Z,100247.40
2018-06-01T15:15:28.035Z,100249.95
2018-06-01T15:17:55.430Z,100263.16
2018-06-01T15:20:22.848Z,100251.66
2018-06-01T15:22:50.231Z,100254.20
2018-06-01T15:25:17.632Z,100257.44
2018-06-01T15:27:45.023Z,100249.09
2018-06-01T15:30:12.583Z,100258.11
2018-06-01T15:32:39.991Z,100260.79
2018-06-01T15:35:07.407Z,100266.61
2018-06-01T15:37:34.801Z,100267.66
2018-06-01T15:40:02.224Z,100270.53
2018-06-01T15:42:29.630Z,100270.53
2018-06-01T15:44:57.021Z,100278.11
2018-06-01T15:47:24.435Z,100270.27
2018-06-01T15:49:51.864Z,100277.42
2018-06-01T15:52:19.256Z,100277.33
2018-06-01T15:54:46.666Z,100280.50
2018-06-01T15:57:14.069Z,100283.44
2018-06-01T15:59:41.496Z,100285.48
2018-06-01T16:02:08.896Z,100286.94
2018-06-01T16:04:36.307Z,100286.77
2018-06-01T16:07:03.703Z,100284.89
2018-06-01T16:09:31.100Z,100287.49
2018-06-01T16:11:58.495Z,100284.87
2018-06-01T16:14:25.920Z,100287.46
2018-06-01T16:16:53.483Z,100289.00
2018-06-01T16:19:20.875Z,100293.75
2018-06-01T16:21:48.284Z,100290.77
2018-06-01T16:24:15.693Z,100290.00
2018-06-01T16:26:43.087Z,100290.77
2018-06-01T16:29:10.491Z,100290.00
2018-06-01T16:31:37.896Z,100294.23
2018-06-01T16:34:05.299Z,100298.78
2018-06-01T16:36:32.915Z,100300.28
2018-06-01T16:39:00.312Z,100302.03
2018-06-01T16:41:27.739Z,100300.72
2018-06-01T16:43:55.147Z,100304.59
2018-06-01T16:46:22.541Z,100299.29
2018-06-01T16:48:49.944Z,100311.30
2018-06-01T16:51:17.338Z,100306.59
2018-06-01T16:53:44.756Z,100313.70
2018-06-01T16:56:12.150Z,100315.27
2018-06-01T16:58:39.560Z,100311.66
2018-06-01T17:01:06.955Z,100307.69
2018-06-01T17:03:34.448Z,100308.52
2018-06-01T17:06:01.892Z,100309.04
2018-06-01T17:08:29.343Z,100313.30
2018-06-01T17:10:56.934Z,100314.72
2018-06-01T17:13:24.331Z,100320.98
2018-06-01T17:15:51.731Z,100318.98
2018-06-01T17:18:19.136Z,100318.42
2018-06-01T17:20:46.555Z,100323.38
2018-06-01T17:23:13.950Z,100326.90
2018-06-01T17:25:41.355Z,100329.84
2018-06-01T17:28:09.132Z,100326.94
2018-06-01T17:30:36.526Z,100333.06
2018-06-01T17:33:03.923Z,100333.34
2018-06-01T17:35:31.320Z,100342.02
2018-06-01T17:37:58.734Z,100347.45
2018-06-01T17:40:26.123Z,100346.17
2018-06-01T17:42:53.523Z,100348.48
2018-06-01T17:45:20.923Z,100355.58
2018-06-01T17:47:48.326Z,100356.96
2018-06-01T17:50:15.722Z,100353.98
2018-06-01T17:52:43.118Z,100364.78
2018-06-01T17:55:10.951Z,100364.36
2018-06-01T17:57:38.343Z,100360.00
2018-06-01T18:00:05.807Z,100367.51
2018-06-01T18:02:33.134Z,100367.50
2018-06-01T18:05:00.527Z,100373.91
2018-06-01T18:07:27.922Z,100375.40
2018-06-01T18:09:55.319Z,100381.20
2018-06-01T18:12:22.715Z,100384.70
2018-06-01T18:14:50.141Z,100379.50
2018-06-01T18:17:17.530Z,100376.67
2018-06-01T18:19:44.931Z,100377.22
2018-06-01T18:22:12.339Z,100381.53
2018-06-01T18:24:39.734Z,100373.52
2018-06-01T18:27:07.214Z,100379.15
2018-06-01T18:29:34.611Z,100381.20
2018-06-01T18:32:02.067Z,100379.70
2018-06-01T18:34:29.457Z,100388.45
2018-06-01T18:36:56.859Z,100386.31
2018-06-01T18:39:24.249Z,100392.02
2018-06-01T18:41:51.849Z,100386.20
2018-06-01T18:44:19.219Z,100387.38
2018-06-01T18:46:46.619Z,100387.27
2018-06-01T18:49:14.016Z,100395.03
2018-06-01T18:51:41.404Z,100400.08
2018-06-01T18:54:08.798Z,100396.20
2018-06-01T18:56:36.196Z,100401.60
2018-06-01T18:59:03.594Z,100398.57
2018-06-01T19:01:31.004Z,100392.94
2018-06-01T19:03:58.398Z,100396.19
2018-06-01T19:06:25.795Z,100403.00
2018-06-01T19:08:53.187Z,100403.28
2018-06-01T19:11:20.597Z,100402.35
2018-06-01T19:13:47.985Z,100396.23
2018-06-01T19:16:15.382Z,100399.45
2018-06-01T19:18:42.778Z,100400.66
2018-06-01T19:21:10.179Z,100397.16
2018-06-01T19:23:37.575Z,100402.32
2018-06-01T19:26:04.959Z,100396.13
2018-06-01T19:28:33.638Z,100401.14
2018-06-01T19:31:01.031Z,100397.38
2018-06-01T19:33:28.481Z,100395.84
2018-06-01T19:35:55.857Z,100390.06
2018-06-01T19:38:23.650Z,100397.86
2018-06-01T19:40:51.050Z,100402.98
2018-06-01T19:43:18.451Z,100404.77
2018-06-01T19:45:45.846Z,100407.06
2018-06-01T19:48:13.234Z,100407.52
2018-06-01T19:50:40.643Z,100406.82
2018-06-01T19:53:08.040Z,100409.52
2018-06-01T19:55:35.440Z,100408.30
2018-06-01T19:58:02.841Z,100418.48
2018-06-01T20:00:30.251Z,100417.03
2018-06-01T20:02:57.649Z,100421.73
2018-06-01T20:05:25.043Z,100426.02
2018-06-01T20:07:52.455Z,100420.94
2018-06-01T20:10:19.853Z,100428.38
2018-06-01T20:12:47.255Z,100428.77
2018-06-01T20:15:14.652Z,100429.45
2018-06-01T20:17:42.062Z,100433.09
2018-06-01T20:20:09.455Z,100434.61
2018-06-01T20:22:36.868Z,100441.36
2018-06-01T20:25:04.315Z,100435.30
2018-06-01T20:27:31.714Z,100437.31
2018-06-01T20:29:59.115Z,100442.43
2018-06-01T20:32:26.508Z,100442.05
2018-06-01T20:34:53.910Z,100437.41
2018-06-01T20:37:21.307Z,100433.64
2018-06-01T20:39:48.708Z,100437.58
2018-06-01T20:42:16.099Z,100437.86
2018-06-01T20:44:43.490Z,100437.00
2018-06-01T20:47:10.955Z,100437.37
2018-06-01T20:49:38.354Z,100438.07
2018-06-01T20:52:05.749Z,100440.25
2018-06-01T20:54:33.139Z,100441.46
2018-06-01T20:57:00.534Z,100435.51
2018-06-01T20:59:27.922Z,100433.33
2018-06-01T21:01:55.358Z,100435.89
2018-06-01T21:04:22.755Z,100438.10
2018-06-01T21:06:50.161Z,100437.94
2018-06-01T21:09:17.555Z,100437.83
2018-06-01T21:11:44.969Z,100445.23
2018-06-01T21:14:12.372Z,100442.95
2018-06-01T21:16:39.766Z,100453.34
2018-06-01T21:19:07.163Z,100447.80
2018-06-01T21:21:34.853Z,100448.03
2018-06-01T21:24:02.252Z,100452.50
2018-06-01T21:26:29.639Z,100452.36
2018-06-01T21:28:57.037Z,100453.02
2018-06-01T21:31:24.427Z,100455.16
2018-06-01T21:33:51.827Z,100457.06
2018-06-01T21:36:19.220Z,100462.84
2018-06-01T21:38:46.631Z,100468.00
2018-06-01T21:41:14.023Z,100469.88
2018-06-01T21:43:41.415Z,100468.80
2018-06-01T21:46:08.812Z,100464.06
2018-06-01T21:48:36.211Z,100469.31
2018-06-01T21:51:03.612Z,100470.25
2018-06-01T21:53:30.999Z,100470.03
2018-06-01T21:55:58.405Z,100468.55
2018-06-01T21:58:25.798Z,100472.52
2018-06-01T22:00:53.210Z,100473.58
2018-06-01T22:03:20.602Z,100475.68
2018-06-01T22:05:47.999Z,100471.13
2018-06-01T22:08:15.408Z,100478.11
2018-06-01T22:10:42.798Z,100473.69
2018-06-01T22:13:10.196Z,100474.76
2018-06-01T22:15:37.598Z,100477.75
2018-06-01T22:18:04.995Z,100480.67
2018-06-01T22:20:32.394Z,100479.51
2018-06-01T22:22:59.814Z,100487.00
2018-06-01T22:25:27.213Z,100486.48
2018-06-01T22:27:55.068Z,100488.30
2018-06-01T22:30:22.471Z,100489.80
2018-06-01T22:32:50.035Z,100485.60
2018-06-01T22:35:17.439Z,100487.80
2018-06-01T22:37:44.894Z,100487.84
2018-06-01T22:40:12.300Z,100482.35
2018-06-01T22:42:39.695Z,100483.42
2018-06-01T22:45:07.091Z,100482.08
2018-06-01T22:47:34.590Z,100480.06
2018-06-01T22:50:01.987Z,100478.20
2018-06-01T22:52:29.387Z,100481.41
2018-06-01T22:54:56.783Z,100476.12
2018-06-01T22:57:24.182Z,100472.31
2018-06-01T22:59:51.582Z,100472.53
2018-06-01T23:02:18.976Z,100471.05
2018-06-01T23:04:46.377Z,100469.88
2018-06-01T23:07:13.771Z,100467.31
2018-06-01T23:09:41.170Z,100471.46
2018-06-01T23:12:08.568Z,100470.31
2018-06-01T23:14:36.005Z,100472.08
2018-06-01T23:17:03.371Z,100469.67
2018-06-01T23:19:30.922Z,100471.27
2018-06-01T23:21:58.327Z,100467.58
2018-06-01T23:24:25.839Z,100464.22
2018-06-01T23:26:53.246Z,100463.34
2018-06-01T23:29:20.647Z,100464.12
2018-06-01T23:31:48.059Z,100468.16
2018-06-01T23:34:15.442Z,100457.52
2018-06-01T23:36:42.899Z,100458.13
2018-06-01T23:39:10.295Z,100461.99
2018-06-01T23:41:37.708Z,100455.34
2018-06-01T23:44:05.108Z,100459.02
2018-06-01T23:46:32.498Z,100453.63
2018-06-01T23:48:59.899Z,100460.37
2018-06-01T23:51:27.298Z,100459.66
2018-06-01T23:53:54.742Z,100460.33
2018-06-01T23:56:22.138Z,100450.23
2018-06-01T23:58:49.531Z,100449.53
